»·PEaware :: DCM206 KSNA-KPSP

DCM206 :: KSNA-KPSP

FLIGHT INFORMATION

Flight Status: Arrived
Operator:
DotCom
More flights by this operator :: More flights under this callsign
Pilot: Nick L. (7253)
Aircraft: BOEING 737-700
(B737)
More flights by this aircraft type
Origin: KSNA John Wayne-Orange Co
United States
Destination: KPSP Palm Springs Intl
United States
More flights between these airports :: More routes between these airports
Route: MUSEL8 SLI NIKKL V64 TRM
File this flight plan on PilotEdge
Remarks: RMK / SIMBRIEF
Altitude:
(Current/Filed)
23,000ft
Speed:
(Current/Filed)
440kts
Departed: 04-Feb-21 10:38 AM
Arrived: 04-Feb-21 11:07 AM
Distance/Time
Traveled:
68nm/0:29
Distance/Time
To Go:
Arrived

Flight Plot

Page will automatically refresh every two minutes.

Flight plan parsing failed; only flown route is shown


Map Options




Map Legend


Flown Route
Filed Route
Departure Airport
Arrival Airport
Navaid (VOR, NDB)
Fix

Horizontal Profiles

Position Reports

Time Latitude Longitude Heading Altitude Ground
Speed
04-Feb-21 10:10 33.672445 -117.866852 210 63ft 0kts
04-Feb-21 10:11 33.672445 -117.866852 210 64ft 0kts
04-Feb-21 10:12 33.672445 -117.866852 210 64ft 0kts
04-Feb-21 10:13 33.672445 -117.866852 210 64ft 0kts
04-Feb-21 10:14 33.672445 -117.866852 210 64ft 0kts
04-Feb-21 10:15 33.672445 -117.866852 210 64ft 0kts
04-Feb-21 10:16 33.672445 -117.866852 210 64ft 0kts
04-Feb-21 10:17 33.672445 -117.866852 210 64ft 0kts
04-Feb-21 10:18 33.672445 -117.866852 210 64ft 0kts
04-Feb-21 10:19 33.672445 -117.866852 210 64ft 0kts
04-Feb-21 10:20 33.672445 -117.866852 210 64ft 0kts
04-Feb-21 10:21 33.672445 -117.866852 210 64ft 0kts
04-Feb-21 10:22 33.672445 -117.866852 210 64ft 0kts
04-Feb-21 10:23 33.672445 -117.866852 210 64ft 0kts
04-Feb-21 10:24 33.672445 -117.866852 210 64ft 0kts
04-Feb-21 10:25 33.672445 -117.866852 210 64ft 0kts
04-Feb-21 10:26 33.672445 -117.866852 210 64ft 0kts
04-Feb-21 10:27 33.672445 -117.866852 210 64ft 0kts
04-Feb-21 10:28 33.672445 -117.866852 210 64ft 0kts
04-Feb-21 10:29 33.672445 -117.866852 210 64ft 0kts
04-Feb-21 10:30 33.672445 -117.866852 210 64ft 0kts
04-Feb-21 10:31 33.672444 -117.866852 210 64ft 0kts
04-Feb-21 10:32 33.672553 -117.867415 308 64ft 9kts
04-Feb-21 10:33 33.674487 -117.866242 27 64ft 12kts
04-Feb-21 10:34 33.677856 -117.864104 27 64ft 17kts
04-Feb-21 10:35 33.680362 -117.862660 339 64ft 8kts
04-Feb-21 10:36 33.681050 -117.863977 298 64ft 8kts
04-Feb-21 10:37 33.677795 -117.867518 208 64ft 98kts
04-Feb-21 10:38 33.636609 -117.889532 199 2737ft 217kts
04-Feb-21 10:39 33.571050 -117.924066 232 6092ft 279kts
04-Feb-21 10:40 33.547547 -118.011289 261 10531ft 297kts
04-Feb-21 10:41 33.560085 -118.108289 324 14633ft 330kts
04-Feb-21 10:42 33.654478 -118.099014 24 16977ft 364kts
04-Feb-21 10:43 33.707392 -117.992915 63 16987ft 382kts
04-Feb-21 10:44 33.748582 -117.875251 65 16983ft 383kts
04-Feb-21 10:45 33.758815 -117.747083 90 16985ft 390kts
04-Feb-21 10:46 33.750243 -117.616962 93 17710ft 396kts
04-Feb-21 10:48 33.738994 -117.472619 93 20152ft 456kts
04-Feb-21 10:49 33.726467 -117.316441 95 23088ft 488kts
04-Feb-21 10:50 33.713681 -117.158986 94 23203ft 442kts
04-Feb-21 10:51 33.701521 -117.010614 94 21964ft 440kts
04-Feb-21 10:52 33.689658 -116.867777 94 19114ft 423kts
04-Feb-21 10:53 33.678070 -116.731155 94 16125ft 401kts
04-Feb-21 10:54 33.667065 -116.603285 93 12361ft 372kts
04-Feb-21 10:55 33.678934 -116.494012 69 10231ft 294kts
04-Feb-21 10:56 33.725615 -116.419208 44 8268ft 272kts
04-Feb-21 10:57 33.776556 -116.359698 43 7760ft 233kts
04-Feb-21 10:58 33.801135 -116.291224 90 6859ft 227kts
04-Feb-21 10:59 33.771632 -116.232093 170 6307ft 231kts
04-Feb-21 11:00 33.709571 -116.239349 207 6285ft 216kts
04-Feb-21 11:01 33.672303 -116.289597 249 6291ft 204kts
04-Feb-21 11:02 33.676305 -116.358162 301 4476ft 234kts
04-Feb-21 11:03 33.722123 -116.408582 322 2647ft 206kts
04-Feb-21 11:03 33.755119 -116.439029 322 1814ft 159kts
04-Feb-21 11:04 33.785239 -116.467517 317 1042ft 129kts
04-Feb-21 11:06 33.818686 -116.497919 324 511ft 129kts
04-Feb-21 11:06 33.833420 -116.511133 276 442ft 8kts
04-Feb-21 11:07 33.831688 -116.511595 144 437ft 10kts
04-Feb-21 11:08 33.828967 -116.509211 146 431ft 5kts
04-Feb-21 11:09 33.827996 -116.510126 174 430ft 6kts

Navigation Log

Ident Type
Flight plan parsing failed, navigation log unavailable